Список аэропортов
Фактическая погода:

26 июня, 18:30
Температура: +14°C (+13.3*)
Ветер: западный 3 м/с
Давление: *762 мм
неб. облачность
990 м
Время (МСК)Темп. СВетерВлажностьДавлениеОблачностьОсадки
20:00+11З, 1 м/с70%1016 гПамалооблачно
21:00+10СЗ, 1 м/с76%1017 гПамалооблачно
22:00+9С, 2 м/с80%1016 гПас прояснениями
23:00+8С, 1 м/с84%1016 гПамалооблачно
27 июня
00:00+7СВ, 2 м/с89%1016 гПас прояснениями
01:00+7СВ, 2 м/с90%1016 гПаоблачно
02:00+8В, 2 м/с84%1016 гПаоблачносл. дождь
03:00+8В, 2 м/с84%1015 гПаоблачносл. дождь
04:00+8В, 2 м/с86%1015 гПаоблачносл. дождь
05:00+9В, 2 м/с85%1014 гПаоблачно
06:00+11ЮВ, 2 м/с76%1014 гПаоблачно
07:00+14Ю, 2 м/с61%1014 гПаоблачно
08:00+16Ю, 2 м/с54%1013 гПаоблачно
09:00+17Ю, 3 м/с50%1013 гПаоблачно
10:00+18Ю, 4 м/с47%1013 гПаоблачно
11:00+19Ю, 4 м/с41%1013 гПаоблачно
12:00+19Ю, 6 м/с38%1012 гПаоблачно
13:00+19Ю, 5 м/с36%1012 гПаоблачно
14:00+20Ю, 5 м/с33%1012 гПас прояснениями
15:00+19Ю, 5 м/с33%1012 гПаоблачно
16:00+19Ю, 5 м/с35%1012 гПаоблачно
17:00+19Ю, 4 м/с36%1011 гПамалооблачно
18:00+18ЮВ, 3 м/с38%1012 гПас прояснениями
19:00+17ЮВ, 2 м/с45%1012 гПамалооблачно
20:00+15ЮВ, 2 м/с56%1012 гПамалооблачно
21:00+13В, 2 м/с64%1012 гПаясно
22:00+12В, 2 м/с71%1012 гПамалооблачно
23:00+12В, 2 м/с70%1012 гПас прояснениями
28 июня
00:00+12В, 2 м/с68%1012 гПаоблачно
01:00+12В, 2 м/с66%1012 гПаоблачно
02:00+12ЮВ, 2 м/с64%1012 гПаоблачно
03:00+13ЮВ, 2 м/с63%1012 гПаоблачно
04:00+13ЮВ, 3 м/с64%1012 гПаоблачно
05:00+15ЮВ, 4 м/с62%1012 гПаоблачносл. дождь
06:00+16ЮВ, 4 м/с59%1012 гПаоблачносл. дождь
07:00+17ЮВ, 4 м/с52%1012 гПаоблачносл. дождь
08:00+19ЮВ, 4 м/с45%1012 гПас прояснениями
09:00+20ЮВ, 5 м/с41%1012 гПас прояснениями
10:00+20ЮВ, 5 м/с39%1012 гПас прояснениями
11:00+20ЮВ, 6 м/с36%1012 гПамалооблачно
12:00+21Ю, 5 м/с32%1011 гПаясно
13:00+21Ю, 4 м/с30%1011 гПаясно
14:00+21Ю, 4 м/с30%1011 гПамалооблачно
15:00+21ЮВ, 3 м/с30%1010 гПамалооблачно
16:00+21ЮВ, 3 м/с30%1010 гПаясно
17:00+21В, 4 м/с30%1010 гПас прояснениями
18:00+20В, 3 м/с32%1010 гПамалооблачно
19:00+18В, 3 м/с38%1010 гПамалооблачно
20:00+17В, 3 м/с45%1010 гПас прояснениями